»·PEaware :: PRD69 KLAS-KSBP

PRD69 :: KLAS-KSBP

FLIGHT INFORMATION

Flight Status: Arrived
Operator: Unknown
More flights by this operator :: More flights under this callsign
Pilot: Ryan B. (8502)
Aircraft: BEECH AIRCRAFT SUPER KING AIR COMMUTER
(BE20)
More flights by this aircraft type
Origin: KLAS McCarran Intl
United States
Destination: KSBP San Luis Co Regl
United States
More flights between these airports :: More routes between these airports
Route: + LAS V538 GFS V210 HEC V12 PMD
File this flight plan on PilotEdge
Remarks: SHORTCUTS APPRECIATED
Altitude:
(Current/Filed)
21,000ft
Speed:
(Current/Filed)
327kts
Departed: 06-Oct-18 04:17 PM
Arrived: 06-Oct-18 05:45 PM
Distance/Time
Traveled:
272nm/1:28
Distance/Time
To Go:
Arrived

Flight Plot

Page will automatically refresh every two minutes.

Flight plan parsing failed; only flown route is shown


Map Options




Map Legend


Flown Route
Filed Route
Departure Airport
Arrival Airport
Navaid (VOR, NDB)
Fix

Horizontal Profiles

Position Reports

Time Latitude Longitude Heading Altitude Ground
Speed
06-Oct-18 16:05 36.081454 -115.171212 89 2168ft 0kts
06-Oct-18 16:06 36.081454 -115.171212 89 2168ft 0kts
06-Oct-18 16:07 36.081454 -115.171212 89 2168ft 0kts
06-Oct-18 16:08 36.081454 -115.171212 89 2168ft 0kts
06-Oct-18 16:09 36.081454 -115.171212 89 2168ft 0kts
06-Oct-18 16:10 36.081454 -115.171212 89 2168ft 0kts
06-Oct-18 16:11 36.081454 -115.171212 89 2168ft 0kts
06-Oct-18 16:12 36.081454 -115.171212 89 2168ft 0kts
06-Oct-18 16:13 36.081454 -115.171212 89 2168ft 0kts
06-Oct-18 16:14 36.081454 -115.171212 89 2168ft 0kts
06-Oct-18 16:15 36.081454 -115.171212 89 2168ft 0kts
06-Oct-18 16:16 36.081454 -115.171208 89 2168ft 0kts
06-Oct-18 16:17 36.081460 -115.169681 90 2165ft 8kts
06-Oct-18 16:18 36.079241 -115.170476 204 2173ft 12kts
06-Oct-18 16:19 36.082833 -115.166084 24 2151ft 113kts
06-Oct-18 16:20 36.118847 -115.162098 307 4381ft 162kts
06-Oct-18 16:21 36.140739 -115.222337 257 5776ft 218kts
06-Oct-18 16:22 36.095284 -115.249598 191 7582ft 216kts
06-Oct-18 16:23 36.035539 -115.262454 191 9587ft 223kts
06-Oct-18 16:24 35.973993 -115.275394 191 11598ft 227kts
06-Oct-18 16:25 35.911995 -115.287413 191 13598ft 228kts
06-Oct-18 16:26 35.846321 -115.299408 191 14824ft 259kts
06-Oct-18 16:27 35.770612 -115.313607 191 15040ft 291kts
06-Oct-18 16:28 35.691075 -115.328887 192 15003ft 303kts
06-Oct-18 16:29 35.607706 -115.345297 192 15003ft 304kts
06-Oct-18 16:30 35.526590 -115.321419 164 15471ft 298kts
06-Oct-18 16:31 35.448465 -115.292132 165 16252ft 293kts
06-Oct-18 16:32 35.370461 -115.263613 165 17043ft 294kts
06-Oct-18 16:33 35.292134 -115.235069 165 17838ft 294kts
06-Oct-18 16:34 35.213954 -115.206642 166 18634ft 294kts
06-Oct-18 16:35 35.137474 -115.198079 227 19406ft 269kts
06-Oct-18 16:36 35.107284 -115.276480 256 20244ft 254kts
06-Oct-18 16:37 35.085429 -115.358811 257 20722ft 262kts
06-Oct-18 16:38 35.063123 -115.445909 257 20710ft 272kts
06-Oct-18 16:39 35.040477 -115.534350 257 20724ft 274kts
06-Oct-18 16:40 35.017677 -115.623151 258 20753ft 274kts
06-Oct-18 16:41 34.995194 -115.710458 257 20783ft 273kts
06-Oct-18 16:42 34.973723 -115.793584 257 20788ft 271kts
06-Oct-18 16:43 34.951508 -115.879327 257 20790ft 269kts
06-Oct-18 16:44 34.929059 -115.965691 257 20789ft 267kts
06-Oct-18 16:45 34.906770 -116.051169 257 20784ft 265kts
06-Oct-18 16:46 34.884590 -116.135937 257 20775ft 262kts
06-Oct-18 16:47 34.862595 -116.219621 258 20762ft 261kts
06-Oct-18 16:48 34.840445 -116.303860 258 20743ft 261kts
06-Oct-18 16:49 34.818160 -116.388248 258 20723ft 261kts
06-Oct-18 16:50 34.797400 -116.472599 267 20719ft 256kts
06-Oct-18 16:51 34.789109 -116.558812 268 20717ft 256kts
06-Oct-18 16:52 34.780726 -116.645060 268 20716ft 256kts
06-Oct-18 16:53 34.772349 -116.730684 267 20723ft 257kts
06-Oct-18 16:54 34.763820 -116.817204 267 20722ft 257kts
06-Oct-18 16:55 34.755241 -116.903579 267 20728ft 257kts
06-Oct-18 16:56 34.746606 -116.989582 268 20765ft 255kts
06-Oct-18 16:57 34.738061 -117.074522 269 20803ft 253kts
06-Oct-18 16:58 34.730913 -117.144975 269 20827ft 251kts
06-Oct-18 16:59 34.720934 -117.243119 269 20827ft 251kts
06-Oct-18 17:00 34.713726 -117.313149 269 20826ft 250kts
06-Oct-18 17:01 34.703590 -117.410982 269 20822ft 250kts
06-Oct-18 17:02 34.696284 -117.481050 269 20813ft 250kts
06-Oct-18 17:03 34.686013 -117.578950 269 20800ft 250kts
06-Oct-18 17:04 34.678629 -117.648934 269 20802ft 250kts
06-Oct-18 17:05 34.669758 -117.732421 269 20824ft 251kts
06-Oct-18 17:06 34.661654 -117.816321 270 20833ft 250kts
06-Oct-18 17:07 34.652949 -117.900670 269 20834ft 252kts
06-Oct-18 17:08 34.643227 -117.984808 268 20831ft 252kts
06-Oct-18 17:09 34.635525 -118.068725 287 20800ft 243kts
06-Oct-18 17:10 34.654673 -118.146710 289 20835ft 242kts
06-Oct-18 17:11 34.673958 -118.225061 289 20842ft 242kts
06-Oct-18 17:12 34.693152 -118.303041 289 20850ft 241kts
06-Oct-18 17:13 34.712332 -118.381212 289 20869ft 241kts
06-Oct-18 17:14 34.731377 -118.459043 289 20895ft 241kts
06-Oct-18 17:15 34.750362 -118.536881 289 20920ft 240kts
06-Oct-18 17:16 34.769367 -118.615022 289 20931ft 241kts
06-Oct-18 17:17 34.787895 -118.691471 289 20940ft 242kts
06-Oct-18 17:18 34.806641 -118.768995 289 20939ft 242kts
06-Oct-18 17:19 34.825915 -118.847117 289 20939ft 243kts
06-Oct-18 17:20 34.844312 -118.926211 291 20937ft 243kts
06-Oct-18 17:21 34.854213 -119.008092 273 20762ft 258kts
06-Oct-18 17:22 34.847301 -119.095455 273 19948ft 262kts
06-Oct-18 17:23 34.840823 -119.184277 273 19118ft 263kts
06-Oct-18 17:24 34.835040 -119.273093 273 18290ft 264kts
06-Oct-18 17:25 34.829300 -119.362557 273 17459ft 266kts
06-Oct-18 17:26 34.824161 -119.452521 273 16625ft 266kts
06-Oct-18 17:27 34.819688 -119.542496 273 15791ft 267kts
06-Oct-18 17:28 34.815846 -119.632942 274 14953ft 268kts
06-Oct-18 17:29 34.812594 -119.723562 273 14145ft 269kts
06-Oct-18 17:30 34.809947 -119.814423 273 13342ft 269kts
06-Oct-18 17:31 34.807916 -119.905597 274 12536ft 270kts
06-Oct-18 17:32 34.806511 -119.997192 274 11727ft 271kts
06-Oct-18 17:33 34.829344 -120.076305 313 10892ft 253kts
06-Oct-18 17:34 34.876531 -120.136020 314 10047ft 230kts
06-Oct-18 17:35 34.918550 -120.188383 314 9197ft 208kts
06-Oct-18 17:36 34.958277 -120.238541 313 8370ft 205kts
06-Oct-18 17:37 34.997318 -120.289052 313 7549ft 205kts
06-Oct-18 17:38 35.036726 -120.339424 312 6732ft 206kts
06-Oct-18 17:39 35.076578 -120.389855 313 5926ft 207kts
06-Oct-18 17:40 35.112123 -120.437327 309 4859ft 171kts
06-Oct-18 17:41 35.138284 -120.475696 309 3728ft 138kts
06-Oct-18 17:42 35.163783 -120.513511 307 2383ft 128kts
06-Oct-18 17:43 35.182646 -120.544857 305 2167ft 119kts
06-Oct-18 17:44 35.200483 -120.576296 305 1492ft 118kts
06-Oct-18 17:45 35.217960 -120.607034 305 808ft 90kts
06-Oct-18 17:46 35.231738 -120.630982 306 338ft 82kts
06-Oct-18 17:47 35.235778 -120.636212 309 206ft 11kts
06-Oct-18 17:48 35.236831 -120.636090 151 206ft 0kts

Navigation Log

Ident Type
Flight plan parsing failed, navigation log unavailable